Terminal Aerodrome Forecast
Issued by NWS Tampa Bay Area, FL

Home | Current Version | Previous Version | Text Only | Print | Product List | Glossary On
Versions: 1 2 3 4 5 6 7 8 9 10 11 12 13 14 15 16 17 18 19 20 21 22 23 24
000
FTUS42 KTBW 020500
TAFTPA
TAF
KTPA 020532Z 0206/0306 VRB04KT P6SM SCT040 SCT250
     FM021500 06006KT P6SM SCT035 SCT150
     FM021800 25007KT P6SM VCTS SCT040CB BKN150
     FM022100 31008KT P6SM VCTS BKN050CB BKN150
     FM030100 03004KT P6SM BKN100 BKN250=

USA.gov is the U.S. government's official web portal to all federal, state and local government web resources and services.